Terminal Aerodrome Forecast
Issued by NWS Pueblo, CO

Home | Current Version | Previous Version | Text Only | Print | Product List | Glossary On
Versions: 1 2 3 4 5 6 7 8 9 10 11 12 13 14 15 16 17 18 19 20 21 22 23 24 25 26 27 28
000
FTUS45 KPUB 221137
TAFCOS
TAF
KCOS 221137Z 2212/2312 04005KT P6SM SCT200
     FM221600 14010KT P6SM SCT200
     FM222000 19012KT P6SM BKN200
     FM230100 33007KT P6SM SCT130 BKN200
     FM230900 36015G30KT P6SM SCT060 BKN100=

USA.gov is the U.S. government's official web portal to all federal, state and local government web resources and services.